Calgary International Airport
CYYC : now visible

Airfield :











YOU CAN JOIN US ON...

 
LOGIN :

Register | Disclaimer

   EN    FR    IT 

 









Legend :    VFR   Marginal VFR   IFR   Intensive IFR   Very Intensive IFR
Visi :
Ceiling :
>= 8 km
>= 3000ft
5 to 8 km
1000 to 3000 ft
1500m to 5 km
500 to 1000 ft
800 to 1500m
200 to 500 ft
< 800m
< 200 ft
Symbols :   Thunderstorms  Fog  Heavy snow  Heavy precipitations  Wind > 20 kt






- Airport Elevation : 3557 ft
- IATA code : YYC


CYYC - Calgary International

CURRENT METAR :
  • 290700Z 31004KT 15SM BKN100 11/M05 A2959 RMK AC6 SLP026 DENSITY ALT 4400FT

EXPIRED METARs :
  • 290600Z 07003KT 040V130 15SM BKN092 12/M05 A2958 RMK AC6 SLP023 DENSITY ALT 4500FT
  • 290500Z 32003KT 240V360 15SM SCT097 13/M06 A2957 RMK AC4 SLP020 DENSITY ALT 4700FT

TAF TAF CYYC
Valid from the 29 at 06:00 until the 30 at 06:00 UTC


290540Z 2906/3006 VRB03KT P6SM SCT100
FM291200 35010KT P6SM BKN100
FM291500 36015KT P6SM VCSH SCT040 BKN060
FM292100 34015KT P6SM BKN080
TEMPO 2921/3006 P6SM -SHRA BKN060
BECMG 3001/3003 35015G25KT RMK NXT FCST BY 290900Z
CZEG FIR / North America



MET'MAP, your aeronautical weather chart ! - Copyright ORBIFLY December 2007 - Disclaimer

ORBIFLY MET'MAP TEAM :

Programming & Development : Alexandra Zaïnal
Original concept : Baudouin d'Aumeries
Technical & hardware support : Manuel Goepfert
Assistance : Marc-Olivier Méhu

Contact : metmap@orbifly.com




SOURCES & CREDITS :

   NOAA       Earth
Advisory